Wetterdaten: Woche 20.02.06 - 26.02.06 (KW8)
Datum Zeit Temperatur Luftfeuchte Luftdruck Niederschlag Wind Richtung Sonne Solar Taupunkt Windchill
20.02.2006 00:00 4.6 C 75 % 1000.2 hPa 0.0 l/m 5.8 km/h (2 Bft) SO 0.00 h 0 W/m 0.5 C 3.4 C
20.02.2006 01:00 4.2 C 80 % 1000.3 hPa 0.0 l/m 0.5 km/h (0 Bft) S 0.00 h 0 W/m 1.0 C 4.1 C
20.02.2006 02:00 3.8 C 87 % 1000.4 hPa 0.6 l/m 2.7 km/h (1 Bft) O-SO 0.00 h 0 W/m 1.9 C 3.4 C
20.02.2006 03:00 3.1 C 90 % 1000.5 hPa 0.3 l/m 3.7 km/h (1 Bft) O-SO 0.00 h 0 W/m 1.7 C 2.1 C
20.02.2006 04:00 1.6 C 92 % 1000.7 hPa 0.0 l/m 2.6 km/h (1 Bft) O-SO 0.00 h 0 W/m 0.4 C 1.0 C
20.02.2006 05:00 1.3 C 95 % 1001.6 hPa 0.0 l/m 2.1 km/h (1 Bft) O-SO 0.00 h 0 W/m 0.6 C 1.0 C
20.02.2006 06:00 1.6 C 98 % 1002.3 hPa 0.0 l/m 1.3 km/h (1 Bft) SO 0.00 h 0 W/m 1.3 C 1.4 C
20.02.2006 07:00 1.9 C 99 % 1002.7 hPa 0.0 l/m 1.4 km/h (1 Bft) SO 0.00 h 7 W/m 1.8 C 1.6 C
20.02.2006 08:00 2.5 C 100 % 1003.7 hPa 0.0 l/m 0.6 km/h (0 Bft) SO 0.00 h 19 W/m 2.5 C 2.4 C
20.02.2006 09:00 3.4 C 99 % 1004.8 hPa 0.0 l/m 0.0 km/h (0 Bft) N 0.07 h 125 W/m 3.3 C 3.4 C
20.02.2006 10:00 4.4 C 89 % 1005.5 hPa 0.0 l/m 1.2 km/h (1 Bft) SO 0.00 h 142 W/m 2.8 C 4.2 C
20.02.2006 11:00 5.5 C 81 % 1005.3 hPa 0.0 l/m 3.4 km/h (1 Bft) O-SO 0.53 h 328 W/m 2.6 C 5.0 C
20.02.2006 12:00 6.8 C 69 % 1005.1 hPa 0.0 l/m 10.4 km/h (2 Bft) O-SO 0.53 h 366 W/m 1.6 C 4.9 C
20.02.2006 13:00 8.9 C 57 % 1004.9 hPa 0.0 l/m 8.8 km/h (2 Bft) S 0.97 h 507 W/m 0.8 C 7.6 C
20.02.2006 14:00 9.0 C 54 % 1004.8 hPa 0.0 l/m 7.6 km/h (2 Bft) O-SO 0.37 h 257 W/m 0.1 C 8.0 C
20.02.2006 15:00 8.3 C 56 % 1004.9 hPa 0.0 l/m 4.6 km/h (1 Bft) W 0.00 h 122 W/m 0.2 C 7.6 C
20.02.2006 16:00 9.0 C 51 % 1004.8 hPa 0.0 l/m 4.4 km/h (1 Bft) S-SO 0.80 h 222 W/m -0.5 C 8.6 C
20.02.2006 17:00 7.6 C 56 % 1005.6 hPa 0.0 l/m 1.7 km/h (1 Bft) SW 0.10 h 37 W/m -0.8 C 7.4 C
20.02.2006 18:00 4.8 C 67 % 1006.5 hPa 0.0 l/m 0.5 km/h (0 Bft) SW 0.00 h 0 W/m -0.8 C 4.8 C
20.02.2006 19:00 2.8 C 78 % 1007.5 hPa 0.0 l/m 2.8 km/h (1 Bft) S-SO 0.00 h 0 W/m -0.7 C 2.3 C
20.02.2006 20:00 1.6 C 84 % 1007.9 hPa 0.0 l/m 0.5 km/h (0 Bft) S-SO 0.00 h 0 W/m -0.8 C 1.6 C
20.02.2006 21:00 0.7 C 88 % 1008.8 hPa 0.0 l/m 1.4 km/h (1 Bft) O-SO 0.00 h 0 W/m -1.1 C 0.4 C
20.02.2006 22:00 -0.2 C 89 % 1009.3 hPa 0.0 l/m 1.3 km/h (1 Bft) O-SO 0.00 h 0 W/m -1.8 C -0.5 C
20.02.2006 23:00 -0.5 C 91 % 1009.3 hPa 0.0 l/m 0.0 km/h (0 Bft) N 0.00 h 0 W/m -1.8 C -0.5 C
21.02.2006 00:00 -0.1 C 93 % 1009.5 hPa 0.0 l/m 0.0 km/h (0 Bft) N 0.00 h 0 W/m -1.0 C -0.1 C
21.02.2006 01:00 -0.2 C 94 % 1010.3 hPa 0.0 l/m 0.0 km/h (0 Bft) N 0.00 h 0 W/m -1.1 C -0.2 C
21.02.2006 02:00 -1.0 C 94 % 1010.4 hPa 0.0 l/m 0.4 km/h (0 Bft) O-SO 0.00 h 0 W/m -1.9 C -1.0 C
21.02.2006 03:00 -1.3 C 94 % 1010.0 hPa 0.0 l/m 0.0 km/h (0 Bft) N 0.00 h 0 W/m -2.0 C -1.3 C
21.02.2006 04:00 -1.1 C 96 % 1010.2 hPa 0.0 l/m 0.1 km/h (0 Bft) O-SO 0.00 h 0 W/m -1.7 C -1.1 C
21.02.2006 05:00 -0.9 C 98 % 1010.4 hPa 0.0 l/m 0.9 km/h (0 Bft) O-SO 0.00 h 0 W/m -1.2 C -0.9 C
21.02.2006 06:00 -0.6 C 99 % 1010.4 hPa 0.0 l/m 0.0 km/h (0 Bft) N 0.00 h 0 W/m -0.7 C -0.6 C
21.02.2006 07:00 -0.4 C 100 % 1010.3 hPa 0.0 l/m 0.0 km/h (0 Bft) N 0.00 h 16 W/m -0.4 C -0.4 C
21.02.2006 08:00 0.0 C 100 % 1011.2 hPa 0.0 l/m 0.0 km/h (0 Bft) N 0.00 h 48 W/m 0.0 C 0.0 C
21.02.2006 09:00 0.4 C 100 % 1011.2 hPa 0.0 l/m 0.0 km/h (0 Bft) N 0.00 h 95 W/m 0.4 C 0.4 C
21.02.2006 10:00 1.8 C 92 % 1011.2 hPa 0.0 l/m 0.9 km/h (0 Bft) O-SO 0.47 h 273 W/m 0.7 C 1.7 C
21.02.2006 11:00 3.8 C 78 % 1011.1 hPa 0.0 l/m 0.3 km/h (0 Bft) N 1.00 h 386 W/m 0.3 C 3.8 C
21.02.2006 12:00 6.2 C 66 % 1010.4 hPa 0.0 l/m 2.8 km/h (1 Bft) NW 1.00 h 517 W/m 0.3 C 5.8 C
21.02.2006 13:00 9.4 C 54 % 1010.0 hPa 0.0 l/m 10.1 km/h (2 Bft) O-SO 1.00 h 528 W/m 0.5 C 8.5 C
21.02.2006 14:00 10.4 C 45 % 1009.4 hPa 0.0 l/m 4.0 km/h (1 Bft) O 1.00 h 483 W/m -0.9 C 10.4 C
21.02.2006 15:00 10.9 C 39 % 1009.3 hPa 0.0 l/m 9.1 km/h (2 Bft) O-SO 1.00 h 379 W/m -2.7 C 10.9 C
21.02.2006 16:00 10.5 C 37 % 1009.8 hPa 0.0 l/m 11.9 km/h (2 Bft) O-SO 1.00 h 228 W/m -3.7 C 10.5 C
21.02.2006 17:00 8.8 C 42 % 1010.1 hPa 0.0 l/m 1.6 km/h (1 Bft) O-SO 0.47 h 61 W/m -3.3 C 8.6 C
21.02.2006 18:00 6.7 C 47 % 1010.9 hPa 0.0 l/m 0.0 km/h (0 Bft) N 0.00 h 0 W/m -3.8 C 6.7 C
21.02.2006 19:00 5.8 C 52 % 1011.7 hPa 0.0 l/m 0.4 km/h (0 Bft) O 0.00 h 0 W/m -3.4 C 5.8 C
21.02.2006 20:00 3.4 C 63 % 1012.2 hPa 0.0 l/m 0.2 km/h (0 Bft) N 0.00 h 0 W/m -3.0 C 3.4 C
21.02.2006 21:00 2.1 C 72 % 1013.1 hPa 0.0 l/m 0.0 km/h (0 Bft) N 0.00 h 0 W/m -2.5 C 2.1 C
21.02.2006 22:00 1.9 C 79 % 1013.8 hPa 0.0 l/m 0.0 km/h (0 Bft) N 0.00 h 0 W/m -1.4 C 1.9 C
21.02.2006 23:00 2.5 C 80 % 1014.1 hPa 0.0 l/m 0.1 km/h (0 Bft) N 0.00 h 0 W/m -0.7 C 2.5 C
22.02.2006 00:00 1.5 C 83 % 1014.2 hPa 0.0 l/m 0.0 km/h (0 Bft) N 0.00 h 0 W/m -1.0 C 1.5 C
22.02.2006 01:00 1.0 C 87 % 1014.3 hPa 0.0 l/m 0.9 km/h (0 Bft) O-NO 0.00 h 0 W/m -0.9 C 0.8 C
22.02.2006 02:00 0.7 C 89 % 1014.3 hPa 0.0 l/m 0.6 km/h (0 Bft) O-NO 0.00 h 0 W/m -0.9 C 0.6 C
22.02.2006 03:00 1.8 C 85 % 1014.2 hPa 0.0 l/m 0.5 km/h (0 Bft) O 0.00 h 0 W/m -0.4 C 1.8 C
22.02.2006 04:00 3.6 C 74 % 1013.9 hPa 0.0 l/m 4.3 km/h (1 Bft) O 0.00 h 0 W/m -0.7 C 2.7 C
22.02.2006 05:00 3.5 C 70 % 1015.2 hPa 0.0 l/m 3.0 km/h (1 Bft) O-SO 0.00 h 0 W/m -1.5 C 2.8 C
22.02.2006 06:00 3.3 C 70 % 1016.0 hPa 0.0 l/m 0.1 km/h (0 Bft) N 0.00 h 0 W/m -1.6 C 3.3 C
22.02.2006 07:00 3.2 C 70 % 1016.0 hPa 0.0 l/m 0.4 km/h (0 Bft) NO 0.00 h 5 W/m -1.7 C 3.2 C
22.02.2006 08:00 3.4 C 70 % 1016.9 hPa 0.0 l/m 0.6 km/h (0 Bft) O 0.00 h 22 W/m -1.6 C 3.3 C
22.02.2006 09:00 3.7 C 68 % 1018.1 hPa 0.0 l/m 1.3 km/h (1 Bft) O-SO 0.00 h 33 W/m -1.7 C 3.5 C
22.02.2006 10:00 4.1 C 67 % 1018.0 hPa 0.0 l/m 6.2 km/h (2 Bft) O-SO 0.00 h 61 W/m -1.5 C 2.8 C
22.02.2006 11:00 4.6 C 65 % 1017.9 hPa 0.0 l/m 6.1 km/h (2 Bft) O 0.00 h 81 W/m -1.3 C 3.4 C
22.02.2006 12:00 4.9 C 64 % 1017.9 hPa 0.0 l/m 10.9 km/h (2 Bft) O-SO 0.00 h 76 W/m -1.4 C 2.5 C
22.02.2006 13:00 5.2 C 62 % 1017.8 hPa 0.0 l/m 10.5 km/h (2 Bft) O-SO 0.00 h 98 W/m -1.4 C 3.0 C
22.02.2006 14:00 5.5 C 59 % 1017.8 hPa 0.0 l/m 12.4 km/h (3 Bft) O-SO 0.00 h 138 W/m -1.8 C 3.1 C
22.02.2006 15:00 5.3 C 57 % 1017.8 hPa 0.0 l/m 5.8 km/h (2 Bft) O-NO 0.00 h 82 W/m -2.6 C 4.3 C
22.02.2006 16:00 4.7 C 59 % 1018.3 hPa 0.0 l/m 8.1 km/h (2 Bft) O 0.00 h 29 W/m -2.7 C 3.0 C
22.02.2006 17:00 4.2 C 62 % 1019.0 hPa 0.0 l/m 11.4 km/h (2 Bft) O 0.00 h 7 W/m -2.4 C 1.5 C
22.02.2006 18:00 3.9 C 64 % 1019.2 hPa 0.0 l/m 4.6 km/h (1 Bft) O 0.00 h 0 W/m -2.4 C 2.9 C
22.02.2006 19:00 3.8 C 65 % 1020.1 hPa 0.0 l/m 4.4 km/h (1 Bft) O 0.00 h 0 W/m -2.1 C 2.9 C
22.02.2006 20:00 3.6 C 67 % 1019.4 hPa 0.0 l/m 1.5 km/h (1 Bft) O 0.00 h 0 W/m -2.0 C 3.3 C
22.02.2006 21:00 3.4 C 67 % 1020.2 hPa 0.0 l/m 0.5 km/h (0 Bft) NO 0.00 h 0 W/m -2.1 C 3.4 C
22.02.2006 22:00 3.3 C 68 % 1020.2 hPa 0.0 l/m 0.2 km/h (0 Bft) O 0.00 h 0 W/m -2.1 C 3.3 C
22.02.2006 23:00 3.2 C 68 % 1020.2 hPa 0.0 l/m 0.3 km/h (0 Bft) NO 0.00 h 0 W/m -2.1 C 3.2 C
23.02.2006 00:00 3.1 C 69 % 1020.2 hPa 0.0 l/m 0.4 km/h (0 Bft) N-NO 0.00 h 0 W/m -2.0 C 3.1 C
23.02.2006 01:00 2.9 C 70 % 1020.2 hPa 0.0 l/m 3.8 km/h (1 Bft) O-SO 0.00 h 0 W/m -2.0 C 2.1 C
23.02.2006 02:00 2.7 C 72 % 1019.9 hPa 0.0 l/m 0.6 km/h (0 Bft) N-NO 0.00 h 0 W/m -1.7 C 2.7 C
23.02.2006 03:00 2.4 C 75 % 1019.3 hPa 0.0 l/m 0.6 km/h (0 Bft) O-SO 0.00 h 0 W/m -1.5 C 2.3 C
23.02.2006 04:00 2.2 C 74 % 1019.3 hPa 0.0 l/m 1.0 km/h (0 Bft) O 0.00 h 0 W/m -1.9 C 2.0 C
23.02.2006 05:00 2.1 C 74 % 1019.3 hPa 0.0 l/m 3.0 km/h (1 Bft) O-SO 0.00 h 0 W/m -2.0 C 1.4 C
23.02.2006 06:00 2.0 C 75 % 1018.3 hPa 0.0 l/m 0.4 km/h (0 Bft) N 0.00 h 0 W/m -2.0 C 1.9 C
23.02.2006 07:00 1.8 C 75 % 1018.3 hPa 0.0 l/m 0.0 km/h (0 Bft) N 0.00 h 0 W/m -2.1 C 1.8 C
23.02.2006 08:00 1.8 C 77 % 1018.3 hPa 0.0 l/m 0.0 km/h (0 Bft) N 0.00 h 15 W/m -1.8 C 1.8 C
23.02.2006 09:00 1.9 C 78 % 1018.3 hPa 0.0 l/m 0.0 km/h (0 Bft) N 0.00 h 24 W/m -1.6 C 1.9 C
23.02.2006 10:00 2.0 C 79 % 1018.3 hPa 0.0 l/m 0.0 km/h (0 Bft) N 0.00 h 33 W/m -1.4 C 2.0 C
23.02.2006 11:00 2.2 C 79 % 1018.3 hPa 0.0 l/m 1.2 km/h (1 Bft) O-SO 0.00 h 52 W/m -0.9 C 2.0 C
23.02.2006 12:00 2.6 C 77 % 1018.2 hPa 0.0 l/m 1.0 km/h (0 Bft) O-SO 0.00 h 74 W/m -1.1 C 2.4 C
23.02.2006 13:00 2.9 C 70 % 1017.3 hPa 0.0 l/m 0.1 km/h (0 Bft) N 0.00 h 64 W/m -2.1 C 2.9 C
23.02.2006 14:00 3.1 C 66 % 1017.0 hPa 0.0 l/m 2.7 km/h (1 Bft) O-SO 0.00 h 56 W/m -2.7 C 2.5 C
23.02.2006 15:00 3.1 C 65 % 1016.1 hPa 0.0 l/m 2.6 km/h (1 Bft) O-SO 0.00 h 47 W/m -2.9 C 2.6 C
23.02.2006 16:00 2.9 C 66 % 1015.8 hPa 0.0 l/m 2.2 km/h (1 Bft) O-SO 0.00 h 27 W/m -2.8 C 2.5 C
23.02.2006 17:00 2.5 C 67 % 1015.9 hPa 0.0 l/m 1.3 km/h (1 Bft) NO 0.00 h 5 W/m -2.9 C 2.4 C
23.02.2006 18:00 2.4 C 66 % 1015.7 hPa 0.0 l/m 1.0 km/h (0 Bft) O 0.00 h 0 W/m -3.3 C 2.2 C
23.02.2006 19:00 2.1 C 67 % 1016.2 hPa 0.0 l/m 1.0 km/h (0 Bft) O 0.00 h 0 W/m -3.3 C 2.0 C
23.02.2006 20:00 1.9 C 69 % 1015.8 hPa 0.0 l/m 0.2 km/h (0 Bft) N-NO 0.00 h 0 W/m -3.1 C 1.9 C
23.02.2006 21:00 1.7 C 71 % 1015.2 hPa 0.0 l/m 0.2 km/h (0 Bft) O-NO 0.00 h 0 W/m -3.0 C 1.7 C
23.02.2006 22:00 1.6 C 72 % 1015.2 hPa 0.0 l/m 0.1 km/h (0 Bft) O-NO 0.00 h 0 W/m -2.9 C 1.6 C
23.02.2006 23:00 1.6 C 72 % 1014.6 hPa 0.0 l/m 0.2 km/h (0 Bft) N 0.00 h 0 W/m -2.9 C 1.6 C
24.02.2006 00:00 1.7 C 71 % 1014.2 hPa 0.0 l/m 0.3 km/h (0 Bft) NO 0.00 h 0 W/m -3.0 C 1.7 C
24.02.2006 01:00 1.7 C 71 % 1013.7 hPa 0.0 l/m 1.3 km/h (1 Bft) O-NO 0.00 h 0 W/m -2.9 C 1.4 C
24.02.2006 02:00 1.7 C 71 % 1013.1 hPa 0.0 l/m 0.8 km/h (0 Bft) NO 0.00 h 0 W/m -3.0 C 1.7 C
24.02.2006 03:00 1.7 C 70 % 1013.1 hPa 0.0 l/m 0.5 km/h (0 Bft) N-NO 0.00 h 0 W/m -3.2 C 1.7 C
24.02.2006 04:00 1.6 C 67 % 1013.1 hPa 0.0 l/m 6.0 km/h (2 Bft) NO 0.00 h 0 W/m -3.8 C 0.0 C
24.02.2006 05:00 1.4 C 65 % 1013.2 hPa 0.0 l/m 3.5 km/h (1 Bft) NO 0.00 h 0 W/m -4.3 C 0.6 C
24.02.2006 06:00 1.3 C 65 % 1013.2 hPa 0.0 l/m 2.8 km/h (1 Bft) O-NO 0.00 h 0 W/m -4.6 C 0.6 C
24.02.2006 07:00 1.1 C 65 % 1013.2 hPa 0.0 l/m 2.3 km/h (1 Bft) N-NO 0.00 h 7 W/m -4.7 C 0.6 C
24.02.2006 08:00 1.1 C 65 % 1013.1 hPa 0.0 l/m 1.9 km/h (1 Bft) O-SO 0.00 h 22 W/m -4.7 C 0.6 C
24.02.2006 09:00 1.5 C 65 % 1012.1 hPa 0.0 l/m 1.9 km/h (1 Bft) N-NO 0.00 h 55 W/m -4.4 C 1.2 C
24.02.2006 10:00 1.7 C 64 % 1012.1 hPa 0.0 l/m 6.2 km/h (2 Bft) NO 0.00 h 59 W/m -4.5 C 0.1 C
24.02.2006 11:00 1.5 C 61 % 1012.1 hPa 0.0 l/m 10.1 km/h (2 Bft) NO 0.00 h 66 W/m -5.1 C -1.1 C
24.02.2006 12:00 1.5 C 60 % 1012.1 hPa 0.0 l/m 6.2 km/h (2 Bft) NO 0.00 h 94 W/m -5.4 C -0.2 C
24.02.2006 13:00 2.0 C 58 % 1011.1 hPa 0.0 l/m 7.6 km/h (2 Bft) NO 0.00 h 151 W/m -5.4 C 0.0 C
24.02.2006 14:00 1.8 C 59 % 1011.0 hPa 0.0 l/m 7.6 km/h (2 Bft) N-NO 0.00 h 86 W/m -5.3 C -0.1 C
24.02.2006 15:00 1.6 C 61 % 1011.0 hPa 0.0 l/m 4.0 km/h (1 Bft) O 0.00 h 30 W/m -5.1 C 0.7 C
24.02.2006 16:00 1.4 C 65 % 1010.1 hPa 0.0 l/m 3.0 km/h (1 Bft) O-NO 0.00 h 9 W/m -4.5 C 0.7 C
24.02.2006 17:00 1.5 C 67 % 1010.0 hPa 0.0 l/m 0.2 km/h (0 Bft) N-NO 0.00 h 3 W/m -4.0 C 1.5 C
24.02.2006 18:00 1.5 C 67 % 1010.0 hPa 0.0 l/m 0.1 km/h (0 Bft) N 0.00 h 0 W/m -3.9 C 1.5 C
24.02.2006 19:00 1.4 C 70 % 1009.9 hPa 0.0 l/m 0.0 km/h (0 Bft) N 0.00 h 0 W/m -3.6 C 1.4 C
24.02.2006 20:00 1.3 C 71 % 1009.0 hPa 0.0 l/m 0.0 km/h (0 Bft) N 0.00 h 0 W/m -3.3 C 1.3 C
24.02.2006 21:00 1.1 C 72 % 1009.1 hPa 0.0 l/m 0.0 km/h (0 Bft) N 0.00 h 0 W/m -3.4 C 1.1 C
24.02.2006 22:00 1.0 C 73 % 1009.1 hPa 0.0 l/m 0.0 km/h (0 Bft) N 0.00 h 0 W/m -3.3 C 1.0 C
24.02.2006 23:00 0.9 C 74 % 1009.1 hPa 0.0 l/m 0.0 km/h (0 Bft) N 0.00 h 0 W/m -3.2 C 0.9 C
25.02.2006 00:00 0.9 C 76 % 1008.5 hPa 0.0 l/m 0.0 km/h (0 Bft) N 0.00 h 0 W/m -2.9 C 0.9 C
25.02.2006 01:00 0.8 C 77 % 1008.1 hPa 0.0 l/m 0.0 km/h (0 Bft) N 0.00 h 0 W/m -2.6 C 0.8 C
25.02.2006 02:00 1.2 C 73 % 1008.0 hPa 0.0 l/m 0.0 km/h (0 Bft) N 0.00 h 0 W/m -3.1 C 1.2 C
25.02.2006 03:00 1.8 C 59 % 1007.9 hPa 0.0 l/m 0.4 km/h (0 Bft) N-NO 0.00 h 0 W/m -5.2 C 1.8 C
25.02.2006 04:00 1.7 C 58 % 1007.9 hPa 0.0 l/m 1.4 km/h (1 Bft) NO 0.00 h 0 W/m -5.7 C 1.4 C
25.02.2006 05:00 1.4 C 58 % 1008.0 hPa 0.0 l/m 1.0 km/h (0 Bft) O-NO 0.00 h 0 W/m -5.9 C 1.2 C
25.02.2006 06:00 1.2 C 58 % 1008.0 hPa 0.0 l/m 0.1 km/h (0 Bft) N 0.00 h 0 W/m -6.1 C 1.2 C
25.02.2006 07:00 1.0 C 59 % 1008.6 hPa 0.0 l/m 0.4 km/h (0 Bft) N-NO 0.00 h 3 W/m -6.2 C 1.0 C
25.02.2006 08:00 1.0 C 60 % 1009.1 hPa 0.0 l/m 1.4 km/h (1 Bft) O 0.00 h 18 W/m -5.9 C 0.7 C
25.02.2006 09:00 1.5 C 59 % 1009.9 hPa 0.0 l/m 0.7 km/h (0 Bft) O 0.00 h 49 W/m -5.6 C 1.5 C
25.02.2006 10:00 1.7 C 57 % 1010.0 hPa 0.0 l/m 2.1 km/h (1 Bft) O-SO 0.00 h 69 W/m -5.9 C 1.1 C
25.02.2006 11:00 2.2 C 56 % 1009.9 hPa 0.0 l/m 1.9 km/h (1 Bft) O-SO 0.00 h 114 W/m -5.7 C 1.9 C
25.02.2006 12:00 2.7 C 55 % 1009.9 hPa 0.0 l/m 4.2 km/h (1 Bft) O-SO 0.00 h 140 W/m -5.5 C 1.7 C
25.02.2006 13:00 2.5 C 56 % 1009.9 hPa 0.0 l/m 2.5 km/h (1 Bft) O-SO 0.00 h 79 W/m -5.5 C 2.0 C
25.02.2006 14:00 2.4 C 58 % 1009.9 hPa 0.0 l/m 7.1 km/h (2 Bft) O-SO 0.00 h 71 W/m -5.1 C 0.4 C
25.02.2006 15:00 2.2 C 58 % 1010.2 hPa 0.0 l/m 3.4 km/h (1 Bft) O-SO 0.00 h 53 W/m -5.3 C 1.4 C
25.02.2006 16:00 1.7 C 63 % 1011.1 hPa 0.0 l/m 2.1 km/h (1 Bft) O-SO 0.00 h 36 W/m -4.5 C 1.4 C
25.02.2006 17:00 0.9 C 76 % 1011.2 hPa 0.0 l/m 0.8 km/h (0 Bft) O-NO 0.00 h 11 W/m -2.8 C 0.7 C
25.02.2006 18:00 0.4 C 85 % 1011.5 hPa 0.0 l/m 0.0 km/h (0 Bft) N 0.00 h 2 W/m -1.9 C 0.4 C
25.02.2006 19:00 0.1 C 88 % 1012.3 hPa 0.0 l/m 0.0 km/h (0 Bft) N 0.00 h 0 W/m -1.8 C 0.1 C
25.02.2006 20:00 -0.2 C 88 % 1012.4 hPa 0.0 l/m 0.0 km/h (0 Bft) N 0.00 h 0 W/m -2.0 C -0.2 C
25.02.2006 21:00 -0.3 C 88 % 1012.4 hPa 0.0 l/m 0.0 km/h (0 Bft) N 0.00 h 0 W/m -2.1 C -0.3 C
25.02.2006 22:00 -0.4 C 89 % 1012.4 hPa 0.0 l/m 0.0 km/h (0 Bft) N 0.00 h 0 W/m -2.0 C -0.4 C
25.02.2006 23:00 -0.6 C 89 % 1012.4 hPa 0.0 l/m 0.0 km/h (0 Bft) N 0.00 h 0 W/m -2.1 C -0.6 C
26.02.2006 00:00 -0.5 C 89 % 1012.4 hPa 0.3 l/m 0.0 km/h (0 Bft) N 0.00 h 0 W/m -2.2 C -0.5 C
26.02.2006 01:00 -0.5 C 88 % 1012.6 hPa 0.0 l/m 0.0 km/h (0 Bft) N 0.00 h 0 W/m -2.2 C -0.5 C
26.02.2006 02:00 -0.6 C 90 % 1013.1 hPa 0.3 l/m 0.0 km/h (0 Bft) N 0.00 h 0 W/m -1.9 C -0.6 C
26.02.2006 03:00 -0.8 C 91 % 1012.5 hPa 0.3 l/m 0.0 km/h (0 Bft) N 0.00 h 0 W/m -2.1 C -0.8 C
26.02.2006 04:00 -0.8 C 89 % 1012.5 hPa 0.0 l/m 0.0 km/h (0 Bft) N 0.00 h 0 W/m -2.4 C -0.8 C
26.02.2006 05:00 -0.9 C 90 % 1013.0 hPa 0.3 l/m 0.0 km/h (0 Bft) N 0.00 h 0 W/m -2.3 C -0.9 C
26.02.2006 06:00 -1.0 C 92 % 1013.5 hPa 0.3 l/m 0.0 km/h (0 Bft) N 0.00 h 0 W/m -2.2 C -1.0 C
26.02.2006 07:00 -1.0 C 92 % 1013.5 hPa 0.0 l/m 0.0 km/h (0 Bft) N 0.00 h 7 W/m -2.0 C -1.0 C
26.02.2006 08:00 -0.7 C 92 % 1013.5 hPa 0.3 l/m 0.0 km/h (0 Bft) N 0.00 h 26 W/m -1.7 C -0.7 C
26.02.2006 09:00 -0.3 C 90 % 1014.1 hPa 0.3 l/m 0.0 km/h (0 Bft) N 0.00 h 59 W/m -1.8 C -0.3 C
26.02.2006 10:00 0.0 C 86 % 1014.4 hPa 0.0 l/m 0.0 km/h (0 Bft) N 0.00 h 86 W/m -2.0 C 0.0 C
26.02.2006 11:00 0.6 C 81 % 1014.3 hPa 0.0 l/m 0.0 km/h (0 Bft) N 0.00 h 156 W/m -2.4 C 0.6 C
26.02.2006 12:00 1.1 C 75 % 1014.0 hPa 0.0 l/m 1.0 km/h (0 Bft) O-SO 0.32 h 297 W/m -2.8 C 0.9 C
26.02.2006 13:00 1.6 C 72 % 1013.2 hPa 0.0 l/m 1.5 km/h (1 Bft) O-SO 0.08 h 176 W/m -2.9 C 1.2 C
26.02.2006 14:00 1.2 C 71 % 1013.2 hPa 0.0 l/m 1.5 km/h (1 Bft) NO 0.00 h 107 W/m -3.5 C 0.9 C
26.02.2006 15:00 0.9 C 69 % 1013.3 hPa 0.0 l/m 4.5 km/h (1 Bft) NO 0.00 h 105 W/m -4.2 C -0.2 C
26.02.2006 16:00 0.3 C 70 % 1013.3 hPa 0.0 l/m 3.3 km/h (1 Bft) NO 0.00 h 44 W/m -4.5 C -0.5 C
26.02.2006 17:00 -0.2 C 68 % 1014.4 hPa 0.0 l/m 5.3 km/h (1 Bft) NO 0.00 h 9 W/m -5.5 C -1.7 C
26.02.2006 18:00 -0.7 C 68 % 1014.8 hPa 0.0 l/m 7.4 km/h (2 Bft) NO 0.00 h 2 W/m -5.9 C -3.0 C
26.02.2006 19:00 -1.1 C 69 % 1015.7 hPa 0.0 l/m 3.3 km/h (1 Bft) NO 0.00 h 0 W/m -6.0 C -2.0 C
26.02.2006 20:00 -1.4 C 68 % 1016.4 hPa 0.0 l/m 1.1 km/h (1 Bft) NO 0.00 h 0 W/m -6.6 C -1.8 C
26.02.2006 21:00 -1.7 C 68 % 1016.8 hPa 0.0 l/m 1.5 km/h (1 Bft) NO 0.00 h 0 W/m -6.9 C -2.2 C
26.02.2006 22:00 -1.9 C 62 % 1017.6 hPa 0.0 l/m 2.8 km/h (1 Bft) NO 0.00 h 0 W/m -8.1 C -2.5 C
26.02.2006 23:00 -2.0 C 62 % 1017.9 hPa 0.0 l/m 0.9 km/h (0 Bft) NO 0.00 h 0 W/m -8.4 C -2.2 C
Min-Datum _ 26.02.06 21.02.06 20.02.06 - 20.02.06 - - - 26.02.06 26.02.06
_ Min-Zeit 23:45 16:14 00:01 - 01:03 - - - 22:55 22:55
Minimum _ -2.2 C 35 % 1000.2 hPa - 0.0 km/h (0 Bft) - - - -8.7 C -6.6 C
Max-Datum _ 21.02.06 20.02.06 23.02.06 20.02.06 21.02.06 - 26.02.06 20.02.06 20.02.06 21.02.06
_ Max-Zeit 15:44 07:09 02:05 02:37 16:00 - 13:03 11:51 09:55 15:44
Maximum _ 11.1 C 100 % 1020.3 hPa 0.6 l/m 27.0 km/h
O-SO (4 Bft)
- 0.05 h 714 W/m 3.7 C 11.1 C
Durchschnitt _ 2.2 C 73 % 1012.3 hPa #3.3 l/m 2.1 km/h (1 Bft) O-SO #10:42 h 109 W/m -2.4 C 1.8 C
© Kaiko 2006